Time,TemperatureF,DewpointF,PressureIn,WindDirection,WindDirectionDegrees,WindSpeedMPH,WindSpeedGustMPH,Humidity,HourlyPrecipIn,Conditions,Clouds,dailyrainin,SoftwareType,DateUTC
2013-08-03 00:43:00,75.0,74.0,30.04,NE,46,0.0,0.0,96,0.00,,,0.00,,2013-08-03 04:43:00,
2013-08-03 01:42:00,74.0,73.0,30.03,NE,45,0.0,0.0,97,0.00,,,0.00,,2013-08-03 05:42:00,
2013-08-03 02:02:00,74.0,73.0,30.03,NE,46,0.0,0.0,97,0.00,,,0.00,,2013-08-03 06:02:00,
2013-08-03 02:42:00,74.0,73.0,30.03,NE,45,0.0,0.0,97,0.00,,,0.00,,2013-08-03 06:42:00,
2013-08-03 02:52:00,74.0,73.0,30.02,NE,46,0.0,0.0,97,0.00,,,0.00,,2013-08-03 06:52:00,
2013-08-03 03:02:00,74.0,73.0,30.03,NE,46,0.0,0.0,97,0.00,,,0.00,,2013-08-03 07:02:00,
2013-08-03 03:12:00,74.0,73.0,30.02,NE,46,0.0,0.0,97,0.00,,,0.00,,2013-08-03 07:12:00,
2013-08-03 03:22:00,73.0,72.0,30.02,NE,46,0.0,0.0,97,0.00,,,0.00,,2013-08-03 07:22:00,
2013-08-03 03:32:00,73.0,72.0,30.02,NE,46,0.0,0.0,97,0.00,,,0.00,,2013-08-03 07:32:00,
2013-08-03 03:43:00,73.0,72.0,30.02,NE,45,0.0,0.0,97,0.00,,,0.00,,2013-08-03 07:43:00,
2013-08-03 03:52:00,73.0,72.0,30.02,NE,46,0.0,0.0,97,0.00,,,0.00,,2013-08-03 07:52:00,
2013-08-03 04:02:00,73.0,72.0,30.02,NE,46,0.0,0.0,97,0.00,,,0.00,,2013-08-03 08:02:00,
2013-08-03 04:22:00,73.0,72.0,30.02,NE,46,0.0,0.0,97,0.00,,,0.00,,2013-08-03 08:22:00,
2013-08-03 04:32:00,73.0,72.0,30.02,NE,46,0.0,0.0,98,0.00,,,0.00,,2013-08-03 08:32:00,
2013-08-03 04:43:00,73.0,72.0,30.02,NE,46,0.0,0.0,98,0.00,,,0.00,,2013-08-03 08:43:00,
2013-08-03 04:52:00,73.0,72.0,30.02,NE,45,0.0,0.0,98,0.00,,,0.00,,2013-08-03 08:52:00,
2013-08-03 05:02:00,73.0,72.0,30.02,NE,46,0.0,0.0,98,0.00,,,0.00,,2013-08-03 09:02:00,
2013-08-03 05:12:00,72.0,71.0,30.02,NE,45,0.0,0.0,98,0.00,,,0.00,,2013-08-03 09:12:00,
2013-08-03 05:22:00,72.0,71.0,30.02,NE,45,0.0,0.0,98,0.00,,,0.00,,2013-08-03 09:22:00,
2013-08-03 05:32:00,72.0,71.0,30.02,NE,46,0.0,0.0,98,0.00,,,0.00,,2013-08-03 09:32:00,
2013-08-03 05:43:00,73.0,72.0,30.02,NE,46,0.0,0.0,98,0.00,,,0.00,,2013-08-03 09:43:00,
2013-08-03 05:53:00,73.0,72.0,30.02,NE,45,0.0,0.0,98,0.00,,,0.00,,2013-08-03 09:53:00,
2013-08-03 06:02:00,73.0,72.0,30.02,NE,46,0.0,0.0,98,0.00,,,0.00,,2013-08-03 10:02:00,
2013-08-03 06:42:00,73.0,72.0,30.03,NE,46,0.0,0.0,98,0.00,,,0.00,,2013-08-03 10:42:00,
2013-08-03 06:53:00,73.0,72.0,30.03,NE,45,0.0,0.0,98,0.00,,,0.00,,2013-08-03 10:53:00,
2013-08-03 07:02:00,73.0,72.0,30.03,NE,46,0.0,0.0,98,0.00,,,0.00,,2013-08-03 11:02:00,
2013-08-03 07:32:00,73.0,72.0,30.03,NE,46,0.0,0.0,98,0.00,,,0.00,,2013-08-03 11:32:00,
2013-08-03 07:43:00,73.0,72.0,30.03,NE,46,0.0,0.0,98,0.00,,,0.00,,2013-08-03 11:43:00,
2013-08-03 07:53:00,73.0,72.0,30.03,NE,46,0.0,0.0,98,0.00,,,0.00,,2013-08-03 11:53:00,
2013-08-03 08:12:00,74.0,73.0,30.03,NE,46,0.0,0.0,98,0.00,,,0.00,,2013-08-03 12:12:00,
2013-08-03 08:32:00,75.0,74.0,30.03,NE,49,0.0,0.0,98,0.00,,,0.00,,2013-08-03 12:32:00,
2013-08-03 08:52:00,76.0,75.0,30.04,West,271,1.0,3.0,98,0.00,,,0.00,,2013-08-03 12:52:00,
2013-08-03 09:02:00,78.0,76.0,30.04,SW,233,1.0,3.0,95,0.00,,,0.00,,2013-08-03 13:02:00,
2013-08-03 09:12:00,78.0,76.0,30.04,NNE,20,1.0,3.0,95,0.00,,,0.00,,2013-08-03 13:12:00,
2013-08-03 09:52:00,82.0,77.0,30.04,SW,214,1.0,3.0,86,0.00,,,0.00,,2013-08-03 13:52:00,
2013-08-03 10:02:00,82.0,78.0,30.04,SW,215,1.0,3.0,87,0.00,,,0.00,,2013-08-03 14:02:00,
2013-08-03 10:13:00,82.0,78.0,30.04,SW,229,1.0,3.0,87,0.00,,,0.00,,2013-08-03 14:13:00,
2013-08-03 10:33:00,84.0,79.0,30.04,WSW,237,0.0,3.0,85,0.00,,,0.00,,2013-08-03 14:33:00,
2013-08-03 10:42:00,85.0,78.0,30.03,SSW,209,0.0,3.0,81,0.00,,,0.00,,2013-08-03 14:42:00,
2013-08-03 10:52:00,85.0,79.0,30.03,ESE,106,0.0,4.0,82,0.00,,,0.00,,2013-08-03 14:52:00,
2013-08-03 11:02:00,86.0,79.0,30.03,WNW,299,0.0,4.0,79,0.00,,,0.00,,2013-08-03 15:02:00,
2013-08-03 11:12:00,87.0,79.0,30.03,ENE,57,1.0,3.0,77,0.00,,,0.00,,2013-08-03 15:12:00,
2013-08-03 11:22:00,88.0,79.0,30.03,SSW,210,1.0,2.0,76,0.00,,,0.00,,2013-08-03 15:22:00,
2013-08-03 11:32:00,88.0,79.0,30.03,SSW,212,3.0,5.0,75,0.00,,,0.00,,2013-08-03 15:32:00,
2013-08-03 11:43:00,88.0,79.0,30.03,North,5,2.0,3.0,75,0.00,,,0.00,,2013-08-03 15:43:00,
2013-08-03 11:53:00,88.0,79.0,30.03,SW,229,2.0,4.0,74,0.00,,,0.00,,2013-08-03 15:53:00,
2013-08-03 12:02:00,88.0,79.0,30.02,SW,228,1.0,6.0,74,0.00,,,0.00,,2013-08-03 16:02:00,
2013-08-03 12:12:00,89.0,80.0,30.02,SE,143,1.0,3.0,74,0.00,,,0.00,,2013-08-03 16:12:00,
2013-08-03 12:23:00,90.0,78.0,30.02,SSE,160,2.0,4.0,68,0.00,,,0.00,,2013-08-03 16:23:00,
2013-08-03 12:33:00,89.0,79.0,30.02,NE,51,1.0,3.0,73,0.00,,,0.00,,2013-08-03 16:33:00,
2013-08-03 12:43:00,89.0,78.0,30.02,SSW,212,1.0,3.0,71,0.00,,,0.00,,2013-08-03 16:43:00,
2013-08-03 12:53:00,90.0,78.0,30.02,East,87,1.0,5.0,68,0.00,,,0.00,,2013-08-03 16:53:00,
2013-08-03 13:03:00,91.0,80.0,30.02,SSW,212,2.0,3.0,70,0.00,,,0.00,,2013-08-03 17:03:00,
2013-08-03 13:12:00,91.0,78.0,30.02,NE,41,2.0,3.0,65,0.00,,,0.00,,2013-08-03 17:12:00,
2013-08-03 13:22:00,90.0,78.0,30.01,SW,225,0.0,2.0,68,0.00,,,0.00,,2013-08-03 17:22:00,
2013-08-03 13:32:00,91.0,79.0,30.02,SW,225,0.0,1.0,68,0.00,,,0.00,,2013-08-03 17:32:00,
2013-08-03 13:43:00,90.0,76.0,30.01,SE,145,1.0,3.0,63,0.00,,,0.00,,2013-08-03 17:43:00,
2013-08-03 13:52:00,91.0,77.0,30.01,SW,236,1.0,1.0,63,0.00,,,0.00,,2013-08-03 17:52:00,
2013-08-03 14:02:00,91.0,77.0,30.01,SSW,200,2.0,4.0,64,0.00,,,0.00,,2013-08-03 18:02:00,
2013-08-03 14:12:00,91.0,77.0,30.01,SSW,203,1.0,5.0,64,0.00,,,0.00,,2013-08-03 18:12:00,
2013-08-03 14:22:00,91.0,77.0,30.01,SSW,197,1.0,5.0,63,0.00,,,0.00,,2013-08-03 18:22:00,
2013-08-03 14:32:00,92.0,79.0,30.01,West,278,0.0,2.0,66,0.00,,,0.00,,2013-08-03 18:32:00,
2013-08-03 14:43:00,92.0,79.0,30.00,SW,222,1.0,4.0,66,0.00,,,0.00,,2013-08-03 18:43:00,
2013-08-03 14:53:00,92.0,79.0,30.00,SW,228,1.0,2.0,65,0.00,,,0.00,,2013-08-03 18:53:00,
2013-08-03 15:02:00,91.0,78.0,29.99,SSW,193,1.0,3.0,65,0.00,,,0.00,,2013-08-03 19:02:00,
2013-08-03 15:12:00,91.0,78.0,29.99,WSW,253,0.0,1.0,66,0.00,,,0.00,,2013-08-03 19:12:00,
2013-08-03 15:22:00,91.0,78.0,29.99,NW,321,1.0,3.0,66,0.00,,,0.00,,2013-08-03 19:22:00,
2013-08-03 15:32:00,91.0,77.0,29.98,SW,228,0.0,2.0,64,0.00,,,0.00,,2013-08-03 19:32:00,
2013-08-03 15:42:00,91.0,78.0,29.98,South,188,1.0,3.0,66,0.00,,,0.00,,2013-08-03 19:42:00,
2013-08-03 15:52:00,92.0,79.0,29.97,SSW,207,0.0,4.0,67,0.00,,,0.00,,2013-08-03 19:52:00,
2013-08-03 16:02:00,91.0,80.0,29.96,WSW,249,0.0,2.0,70,0.00,,,0.00,,2013-08-03 20:02:00,
2013-08-03 16:12:00,91.0,79.0,29.96,East,101,0.0,2.0,68,0.00,,,0.00,,2013-08-03 20:12:00,
2013-08-03 16:22:00,91.0,81.0,29.96,SSE,151,0.0,0.0,73,0.00,,,0.00,,2013-08-03 20:22:00,
2013-08-03 16:32:00,90.0,80.0,29.96,SW,217,0.0,1.0,73,0.00,,,0.00,,2013-08-03 20:32:00,
2013-08-03 16:42:00,90.0,80.0,29.96,SW,217,0.0,1.0,72,0.00,,,0.00,,2013-08-03 20:42:00,
2013-08-03 16:52:00,90.0,81.0,29.96,SW,218,0.0,1.0,74,0.00,,,0.00,,2013-08-03 20:52:00,
2013-08-03 17:02:00,91.0,79.0,29.95,WSW,255,1.0,2.0,69,0.00,,,0.00,,2013-08-03 21:02:00,
2013-08-03 17:12:00,91.0,81.0,29.95,SW,233,0.0,3.0,72,0.00,,,0.00,,2013-08-03 21:12:00,
2013-08-03 17:22:00,90.0,80.0,29.95,SSW,198,1.0,2.0,72,0.00,,,0.00,,2013-08-03 21:22:00,
2013-08-03 17:32:00,90.0,77.0,29.95,SW,233,1.0,2.0,66,0.00,,,0.00,,2013-08-03 21:32:00,
2013-08-03 17:42:00,89.0,77.0,29.95,West,277,1.0,3.0,69,0.00,,,0.00,,2013-08-03 21:42:00,
2013-08-03 17:52:00,88.0,78.0,29.95,SW,221,0.0,2.0,73,0.00,,,0.00,,2013-08-03 21:52:00,
2013-08-03 18:02:00,87.0,77.0,29.94,SW,221,0.0,1.0,72,0.00,,,0.00,,2013-08-03 22:02:00,
2013-08-03 18:12:00,86.0,78.0,29.95,SW,221,0.0,1.0,78,0.00,,,0.00,,2013-08-03 22:12:00,
2013-08-03 18:22:00,86.0,77.0,29.95,South,190,1.0,3.0,75,0.00,,,0.00,,2013-08-03 22:22:00,
2013-08-03 18:33:00,86.0,79.0,29.95,South,190,0.0,1.0,79,0.00,,,0.00,,2013-08-03 22:33:00,
2013-08-03 18:43:00,85.0,78.0,29.94,South,190,0.0,1.0,81,0.00,,,0.00,,2013-08-03 22:43:00,
2013-08-03 18:52:00,85.0,78.0,29.94,South,190,0.0,0.0,80,0.00,,,0.00,,2013-08-03 22:52:00,
2013-08-03 19:02:00,84.0,79.0,29.94,South,190,0.0,0.0,84,0.00,,,0.00,,2013-08-03 23:02:00,
2013-08-03 19:12:00,84.0,79.0,29.94,South,190,0.0,0.0,85,0.00,,,0.00,,2013-08-03 23:12:00,
2013-08-03 19:22:00,83.0,78.0,29.95,South,190,0.0,0.0,86,0.00,,,0.00,,2013-08-03 23:22:00,
2013-08-03 19:32:00,83.0,78.0,29.95,South,190,0.0,1.0,86,0.00,,,0.00,,2013-08-03 23:32:00,
2013-08-03 19:43:00,82.0,78.0,29.95,South,190,0.0,0.0,88,0.00,,,0.00,,2013-08-03 23:43:00,
2013-08-03 19:52:00,82.0,77.0,29.95,South,190,0.0,1.0,86,0.00,,,0.00,,2013-08-03 23:52:00,
2013-08-03 20:03:00,81.0,77.0,29.96,South,190,0.0,1.0,87,0.00,,,0.00,,2013-08-04 00:03:00,
2013-08-03 20:12:00,81.0,77.0,29.96,South,190,0.0,0.0,88,0.00,,,0.00,,2013-08-04 00:12:00,
2013-08-03 20:22:00,80.0,76.0,29.96,South,190,0.0,0.0,88,0.00,,,0.00,,2013-08-04 00:22:00,
2013-08-03 20:32:00,80.0,76.0,29.97,South,190,0.0,1.0,89,0.00,,,0.00,,2013-08-04 00:32:00,
2013-08-03 20:42:00,79.0,75.0,29.97,South,190,0.0,0.0,89,0.00,,,0.00,,2013-08-04 00:42:00,
2013-08-03 20:53:00,79.0,76.0,29.98,South,190,0.0,0.0,90,0.00,,,0.00,,2013-08-04 00:53:00,
2013-08-03 21:02:00,78.0,75.0,29.97,South,190,0.0,0.0,90,0.00,,,0.00,,2013-08-04 01:02:00,
2013-08-03 21:12:00,78.0,75.0,29.98,South,190,0.0,0.0,90,0.00,,,0.00,,2013-08-04 01:12:00,
2013-08-03 21:22:00,78.0,75.0,29.98,South,191,0.0,0.0,90,0.00,,,0.00,,2013-08-04 01:22:00,
2013-08-03 21:32:00,77.0,74.0,29.98,South,191,0.0,0.0,91,0.00,,,0.00,,2013-08-04 01:32:00,
2013-08-03 21:42:00,76.0,74.0,29.99,South,190,0.0,0.0,92,0.00,,,0.00,,2013-08-04 01:42:00,
2013-08-03 21:52:00,76.0,74.0,29.99,South,190,0.0,0.0,92,0.00,,,0.00,,2013-08-04 01:52:00,
2013-08-03 22:03:00,76.0,74.0,29.99,South,191,0.0,0.0,92,0.00,,,0.00,,2013-08-04 02:03:00,
2013-08-03 22:12:00,76.0,74.0,29.99,South,190,0.0,0.0,92,0.00,,,0.00,,2013-08-04 02:12:00,
2013-08-03 22:22:00,76.0,74.0,29.99,South,190,0.0,0.0,92,0.00,,,0.00,,2013-08-04 02:22:00,
2013-08-03 22:32:00,76.0,74.0,29.99,South,190,0.0,0.0,92,0.00,,,0.00,,2013-08-04 02:32:00,
2013-08-03 22:42:00,76.0,74.0,29.99,South,190,0.0,0.0,93,0.00,,,0.00,,2013-08-04 02:42:00,
2013-08-03 22:52:00,75.0,73.0,29.99,South,190,0.0,0.0,94,0.00,,,0.00,,2013-08-04 02:52:00,
2013-08-03 23:02:00,75.0,73.0,29.99,South,190,0.0,0.0,95,0.00,,,0.00,,2013-08-04 03:02:00,
2013-08-03 23:12:00,74.0,72.0,30.00,South,190,0.0,0.0,95,0.00,,,0.00,,2013-08-04 03:12:00,
2013-08-03 23:22:00,74.0,72.0,30.00,South,191,0.0,0.0,95,0.00,,,0.00,,2013-08-04 03:22:00,
2013-08-03 23:32:00,74.0,72.0,30.00,South,190,0.0,0.0,95,0.00,,,0.00,,2013-08-04 03:32:00,
2013-08-03 23:42:00,74.0,72.0,30.00,South,190,0.0,0.0,95,0.00,,,0.00,,2013-08-04 03:42:00,
2013-08-03 23:52:00,74.0,72.0,29.99,South,190,0.0,0.0,95,0.00,,,0.00,,2013-08-04 03:52:00,